Time;durP1;ratioP1;P1;durP2;ratioP2;P2;SDS_P1;SDS_P2;PMS_P1;PMS_P2;Temp;Humidity;BMP_temperature;BMP_pressure;BME280_temperature;BME280_humidity;BME280_pressure;Samples;Min_cycle;Max_cycle;Signal;HPM_P1;HPM_P2
2022/03/08 00:01:06;;;;;;;0.30;0.20;;;-0.10;99.90;;;;;;5088728;28;20563;-75
2022/03/08 00:03:33;;;;;;;1.63;1.53;;;0.00;99.90;;;;;;5094227;28;20199;-73
2022/03/08 00:05:58;;;;;;;0.70;0.70;;;-0.10;99.90;;;;;;5094778;28;20304;-73
2022/03/08 00:08:24;;;;;;;0.10;0.10;;;0.10;99.90;;;;;;5075928;28;20270;-74
2022/03/08 00:10:50;;;;;;;0.63;0.63;;;0.00;99.90;;;;;;5093114;28;20192;-75
2022/03/08 00:13:15;;;;;;;2.17;2.07;;;0.00;99.90;;;;;;5076342;28;20184;-75
2022/03/08 00:15:41;;;;;;;0.10;0.10;;;0.10;99.90;;;;;;5078907;28;20223;-74
2022/03/08 00:18:06;;;;;;;1.90;1.33;;;0.10;99.90;;;;;;5096918;28;20226;-74
2022/03/08 00:20:32;;;;;;;0.43;0.43;;;0.00;99.90;;;;;;5076288;28;20551;-74
2022/03/08 00:22:58;;;;;;;1.50;1.03;;;-0.10;99.90;;;;;;5093933;28;20203;-75
2022/03/08 00:25:24;;;;;;;0.43;0.43;;;-0.10;99.90;;;;;;5076108;28;20684;-76
2022/03/08 00:27:49;;;;;;;1.43;1.43;;;-0.10;99.90;;;;;;5094110;28;20204;-76
2022/03/08 00:30:25;;;;;;;0.47;0.47;;;-0.10;99.90;;;;;;5094091;28;20168;-76
2022/03/08 00:32:52;;;;;;;2.63;1.23;;;0.00;99.90;;;;;;5093801;28;20199;-76
2022/03/08 00:35:18;;;;;;;0.47;0.47;;;0.00;99.90;;;;;;5094341;28;20191;-76
2022/03/08 00:37:47;;;;;;;0.73;0.73;;;0.00;99.90;;;;;;5094011;28;20179;-76
2022/03/08 00:40:14;;;;;;;0.77;0.77;;;0.10;99.90;;;;;;5094076;28;20184;-76
2022/03/08 00:42:40;;;;;;;0.10;0.10;;;0.10;99.90;;;;;;5075211;28;20206;-76
2022/03/08 00:45:08;;;;;;;0.37;0.37;;;0.10;99.90;;;;;;5075817;28;20175;-77
2022/03/08 00:47:41;;;;;;;0.50;0.50;;;-0.10;99.90;;;;;;5093819;28;20628;-76
2022/03/08 00:50:10;;;;;;;1.43;1.33;;;-0.20;99.90;;;;;;5093948;28;20225;-76
2022/03/08 00:52:36;;;;;;;1.13;1.13;;;-0.30;99.90;;;;;;5075048;28;20223;-76
2022/03/08 00:55:02;;;;;;;0.10;0.10;;;-0.40;99.90;;;;;;5093557;28;20179;-76
2022/03/08 00:57:27;;;;;;;0.73;0.70;;;-0.40;99.90;;;;;;5075489;28;20208;-76
2022/03/08 00:59:53;;;;;;;1.30;1.20;;;-0.40;99.90;;;;;;5093385;28;20229;-76
2022/03/08 01:02:19;;;;;;;1.57;1.47;;;-0.40;99.90;;;;;;5093118;28;20192;-76
2022/03/08 01:04:44;;;;;;;0.10;0.10;;;-0.50;99.90;;;;;;5093567;28;20187;-75
2022/03/08 01:07:10;;;;;;;0.23;0.23;;;-0.50;99.90;;;;;;5074857;28;20214;-75
2022/03/08 01:09:35;;;;;;;0.73;0.73;;;-0.60;99.90;;;;;;5093270;28;20203;-75
2022/03/08 01:12:01;;;;;;;0.30;0.30;;;-0.60;99.90;;;;;;5074910;28;20231;-75
2022/03/08 01:14:27;;;;;;;1.03;1.03;;;-0.60;99.90;;;;;;5093438;28;20184;-75
2022/03/08 01:16:53;;;;;;;0.63;0.63;;;-0.60;99.90;;;;;;5093102;28;20260;-75
2022/03/08 01:19:18;;;;;;;0.10;0.10;;;-0.70;99.90;;;;;;5093257;28;20176;-75
2022/03/08 01:21:44;;;;;;;7.70;0.77;;;-0.80;99.90;;;;;;5092765;28;20230;-76
2022/03/08 01:24:09;;;;;;;6.23;1.37;;;-0.80;99.90;;;;;;5093237;28;20180;-76
2022/03/08 01:26:35;;;;;;;0.87;0.87;;;-0.80;99.90;;;;;;5093176;28;20217;-76
2022/03/08 01:29:03;;;;;;;0.60;0.60;;;-0.80;99.90;;;;;;5074346;28;20274;-76
2022/03/08 01:31:29;;;;;;;0.80;0.80;;;-0.90;99.90;;;;;;5092556;28;20200;-77
2022/03/08 01:33:55;;;;;;;0.20;0.20;;;-0.80;99.90;;;;;;5096680;28;20245;-77
2022/03/08 01:36:21;;;;;;;2.00;1.33;;;-0.90;99.90;;;;;;5094528;28;20219;-76
2022/03/08 01:38:47;;;;;;;0.10;0.10;;;-1.00;99.90;;;;;;5094916;28;20186;-76
2022/03/08 01:41:12;;;;;;;2.03;1.27;;;-1.00;99.90;;;;;;5094625;28;20204;-76
2022/03/08 01:43:38;;;;;;;0.63;0.63;;;-1.10;99.90;;;;;;5093384;28;20176;-76
2022/03/08 01:46:04;;;;;;;3.03;2.33;;;-1.10;99.90;;;;;;5094390;28;20194;-76
2022/03/08 01:48:30;;;;;;;0.20;0.20;;;-1.10;99.90;;;;;;5075468;28;20190;-75
2022/03/08 01:53:23;;;;;;;1.73;1.63;;;-1.30;99.90;;;;;;5108895;22;20231;-75
2022/03/08 01:55:52;;;;;;;0.30;0.30;;;-1.30;99.90;;;;;;5092362;28;20200;-75
2022/03/08 01:58:17;;;;;;;1.30;1.23;;;-1.40;99.90;;;;;;5092256;28;20674;-75
2022/03/08 02:00:43;;;;;;;0.37;0.33;;;-1.40;99.90;;;;;;5092195;28;20172;-76
2022/03/08 02:03:09;;;;;;;0.63;0.63;;;-1.40;99.90;;;;;;5073835;28;20223;-76
2022/03/08 02:05:34;;;;;;;0.57;0.57;;;-1.40;99.90;;;;;;5092098;28;20192;-76
2022/03/08 02:08:00;;;;;;;1.80;1.70;;;-1.40;99.90;;;;;;5092055;28;20180;-75
2022/03/08 02:10:26;;;;;;;0.67;0.67;;;-1.40;99.90;;;;;;5092084;28;20183;-75
2022/03/08 02:12:51;;;;;;;1.23;1.23;;;-1.50;99.90;;;;;;5091490;28;20207;-75
2022/03/08 02:15:20;;;;;;;0.73;0.73;;;-1.60;99.90;;;;;;5092017;28;20187;-74
2022/03/08 02:17:46;;;;;;;0.10;0.10;;;-1.70;99.90;;;;;;5091976;28;20168;-75
2022/03/08 02:20:13;;;;;;;3.67;1.57;;;-1.60;99.90;;;;;;5091912;28;20172;-75
2022/03/08 02:22:43;;;;;;;5.30;1.03;;;-1.40;99.90;;;;;;5073281;28;20284;-76
2022/03/08 02:25:09;;;;;;;1.93;1.80;;;-1.20;99.90;;;;;;5091889;28;20195;-75
2022/03/08 02:27:42;;;;;;;0.37;0.37;;;-1.10;99.90;;;;;;5073561;28;20180;-76
2022/03/08 02:30:09;;;;;;;0.67;0.67;;;-1.20;99.90;;;;;;5091879;28;20324;-75
2022/03/08 02:32:34;;;;;;;2.73;1.87;;;-1.10;99.90;;;;;;5091341;28;20235;-75
2022/03/08 02:35:12;;;;;;;1.70;1.00;;;-1.10;99.90;;;;;;5091581;28;20228;-73
2022/03/08 02:37:43;;;;;;;0.40;0.40;;;-1.00;99.90;;;;;;5091865;28;20271;-75
2022/03/08 02:40:14;;;;;;;0.20;0.20;;;-1.00;99.90;;;;;;5091681;28;20695;-78
2022/03/08 02:42:40;;;;;;;0.80;0.80;;;-1.00;99.90;;;;;;5091286;28;20196;-76
2022/03/08 02:45:07;;;;;;;1.37;1.27;;;-1.00;99.90;;;;;;5091674;28;20650;-75
2022/03/08 02:47:33;;;;;;;0.90;0.90;;;-1.00;99.90;;;;;;5091396;28;20191;-76
2022/03/08 02:49:59;;;;;;;0.10;0.10;;;-1.00;99.90;;;;;;5091569;28;20183;-75
2022/03/08 02:52:25;;;;;;;0.63;0.63;;;-0.80;99.90;;;;;;5090709;28;20215;-75
2022/03/08 02:54:50;;;;;;;6.27;2.07;;;-0.80;99.90;;;;;;5091471;28;20175;-76
2022/03/08 02:57:16;;;;;;;0.10;0.10;;;-0.70;99.90;;;;;;5073098;28;20217;-76
2022/03/08 02:59:41;;;;;;;0.60;0.60;;;-0.70;99.90;;;;;;5091315;28;20180;-76
2022/03/08 03:02:07;;;;;;;0.37;0.37;;;-0.70;99.90;;;;;;5090752;28;20207;-76
2022/03/08 03:04:32;;;;;;;0.20;0.20;;;-0.70;99.90;;;;;;5091299;28;20233;-78
2022/03/08 03:06:58;;;;;;;0.33;0.33;;;-0.80;99.90;;;;;;5091470;28;20198;-76
2022/03/08 03:09:24;;;;;;;0.47;0.47;;;-0.80;99.90;;;;;;5091506;28;20182;-76
2022/03/08 03:11:50;;;;;;;0.10;0.10;;;-0.90;99.90;;;;;;5090945;28;20735;-77
2022/03/08 03:14:15;;;;;;;1.60;1.43;;;-0.80;99.90;;;;;;5091302;28;20229;-77
2022/03/08 03:16:41;;;;;;;2.93;1.70;;;-0.90;99.90;;;;;;5090932;28;20623;-76
2022/03/08 03:19:07;;;;;;;0.53;0.53;;;-0.90;99.90;;;;;;5073106;28;20189;-75
2022/03/08 03:21:33;;;;;;;0.83;0.83;;;-0.90;99.90;;;;;;5090711;28;20203;-74
2022/03/08 03:23:58;;;;;;;0.10;0.10;;;-0.90;99.90;;;;;;5093376;28;20181;-76
2022/03/08 03:26:24;;;;;;;0.77;0.77;;;-1.00;99.90;;;;;;5095191;28;20679;-76
2022/03/08 03:28:49;;;;;;;6.20;1.50;;;-1.00;99.90;;;;;;5095291;28;20176;-75
2022/03/08 03:31:15;;;;;;;0.30;0.30;;;-1.10;99.90;;;;;;5094852;28;20183;-75
2022/03/08 03:33:41;;;;;;;3.90;2.93;;;-1.00;99.90;;;;;;5095019;28;20168;-76
2022/03/08 03:36:07;;;;;;;0.10;0.10;;;-0.90;99.90;;;;;;5095237;28;20700;-75
2022/03/08 03:38:32;;;;;;;0.30;0.30;;;-1.00;99.90;;;;;;5095233;28;20183;-76
2022/03/08 03:40:58;;;;;;;0.27;0.27;;;-1.00;99.90;;;;;;5095209;28;20254;-76
2022/03/08 03:43:24;;;;;;;0.57;0.57;;;-0.90;99.90;;;;;;5094774;28;20674;-76
2022/03/08 03:45:49;;;;;;;0.73;0.73;;;-0.90;99.90;;;;;;5094855;28;20203;-75
2022/03/08 03:48:15;;;;;;;1.43;1.40;;;-1.00;99.90;;;;;;5095014;28;20226;-75
2022/03/08 03:50:41;;;;;;;1.40;1.30;;;-0.90;99.90;;;;;;5094818;28;20187;-76
2022/03/08 03:53:07;;;;;;;0.10;0.10;;;-0.80;99.90;;;;;;5076266;28;20723;-76
2022/03/08 03:55:33;;;;;;;0.63;0.53;;;-0.90;99.90;;;;;;5094644;28;20204;-76
2022/03/08 03:57:58;;;;;;;0.30;0.30;;;-0.90;99.90;;;;;;5094831;28;20179;-77
2022/03/08 04:00:24;;;;;;;0.77;0.77;;;-1.00;99.90;;;;;;5094485;28;20168;-77
2022/03/08 04:02:49;;;;;;;0.10;0.10;;;-1.00;99.90;;;;;;5094381;28;20224;-76
2022/03/08 04:05:15;;;;;;;1.80;1.10;;;-1.00;99.90;;;;;;5094716;28;20171;-77
2022/03/08 04:07:41;;;;;;;0.80;0.80;;;-1.00;99.90;;;;;;5076396;28;20258;-77
2022/03/08 04:10:09;;;;;;;0.40;0.40;;;-1.00;99.90;;;;;;5094570;28;20171;-76
2022/03/08 04:12:34;;;;;;;1.03;1.03;;;-0.90;99.90;;;;;;5094167;28;20199;-76
2022/03/08 04:15:00;;;;;;;0.10;0.10;;;-0.80;99.90;;;;;;5090063;28;20172;-76
2022/03/08 04:17:25;;;;;;;0.63;0.63;;;-0.70;99.90;;;;;;5094332;28;20199;-75
2022/03/08 04:19:51;;;;;;;2.37;0.60;;;-0.60;99.90;;;;;;5094227;28;20701;-75
2022/03/08 04:22:16;;;;;;;0.57;0.57;;;-0.70;99.90;;;;;;5094130;28;20566;-75
2022/03/08 04:24:42;;;;;;;1.33;1.33;;;-0.60;99.90;;;;;;5094320;28;20176;-75
2022/03/08 04:27:07;;;;;;;1.50;1.17;;;-0.60;99.90;;;;;;5075878;28;20199;-75
2022/03/08 04:29:33;;;;;;;0.37;0.37;;;-0.60;99.90;;;;;;5075914;28;20183;-75
2022/03/08 04:31:58;;;;;;;0.17;0.17;;;-0.60;99.90;;;;;;5093827;28;20561;-76
2022/03/08 04:34:24;;;;;;;0.70;0.70;;;-0.60;99.90;;;;;;5093580;28;20654;-75
2022/03/08 04:36:50;;;;;;;1.40;1.40;;;-0.50;99.90;;;;;;5094135;28;20204;-75
2022/03/08 04:39:15;;;;;;;0.40;0.40;;;-0.40;99.90;;;;;;5075893;28;20262;-75
2022/03/08 04:41:41;;;;;;;0.20;0.20;;;-0.50;99.90;;;;;;5093627;28;20746;-75
2022/03/08 04:44:08;;;;;;;1.07;0.93;;;-0.50;99.90;;;;;;5093905;28;20701;-74
2022/03/08 04:46:33;;;;;;;0.63;0.63;;;-0.60;99.90;;;;;;5094159;28;20208;-74
2022/03/08 04:49:00;;;;;;;0.73;0.73;;;-0.60;99.90;;;;;;5094065;28;20207;-75
2022/03/08 04:51:25;;;;;;;0.77;0.77;;;-0.60;99.90;;;;;;5075217;28;20625;-74
2022/03/08 04:53:51;;;;;;;2.90;0.70;;;-0.60;99.90;;;;;;5093742;28;20187;-76
2022/03/08 04:56:18;;;;;;;0.10;0.10;;;-0.70;99.90;;;;;;5093561;28;20574;-75
2022/03/08 04:58:44;;;;;;;0.40;0.40;;;-0.70;99.90;;;;;;5093600;28;20164;-75
2022/03/08 05:01:10;;;;;;;2.40;2.30;;;-0.70;99.90;;;;;;5093534;28;20171;-75
2022/03/08 05:03:36;;;;;;;0.43;0.43;;;-0.80;99.90;;;;;;5093302;28;20738;-75
2022/03/08 05:06:02;;;;;;;1.20;1.20;;;-0.80;99.90;;;;;;5093482;28;20218;-76
2022/03/08 05:08:28;;;;;;;0.37;0.37;;;-0.90;99.90;;;;;;5093475;28;20191;-75
2022/03/08 05:10:53;;;;;;;0.77;0.50;;;-0.80;99.90;;;;;;5093208;28;20186;-75
2022/03/08 05:13:19;;;;;;;0.10;0.10;;;-0.80;99.90;;;;;;5093006;28;20200;-76
2022/03/08 05:15:48;;;;;;;1.43;1.33;;;-0.90;99.90;;;;;;5093212;28;20206;-73
2022/03/08 05:18:15;;;;;;;0.60;0.60;;;-1.00;99.90;;;;;;5093141;28;20203;-73
2022/03/08 05:20:40;;;;;;;0.87;0.87;;;-1.10;99.90;;;;;;5093336;28;20199;-73
2022/03/08 05:23:06;;;;;;;0.20;0.20;;;-1.10;99.90;;;;;;5092775;28;20226;-74
2022/03/08 05:25:31;;;;;;;1.03;1.03;;;-1.10;99.90;;;;;;5092974;28;20189;-74
2022/03/08 05:27:57;;;;;;;1.30;1.30;;;-1.20;99.90;;;;;;5092969;28;20202;-74
2022/03/08 05:30:23;;;;;;;0.60;0.60;;;-1.10;99.90;;;;;;5093131;28;20179;-75
2022/03/08 05:32:49;;;;;;;0.10;0.10;;;-1.20;99.90;;;;;;5093385;28;20219;-73
2022/03/08 05:35:14;;;;;;;1.60;1.60;;;-1.00;99.90;;;;;;5093883;28;20232;-75
2022/03/08 05:37:40;;;;;;;0.73;0.57;;;-1.00;99.90;;;;;;5093442;28;20202;-76
2022/03/08 05:40:07;;;;;;;0.10;0.10;;;-1.10;99.90;;;;;;5074545;28;20183;-75
2022/03/08 05:42:33;;;;;;;0.40;0.40;;;-1.10;99.90;;;;;;5089907;28;20252;-74
2022/03/08 05:44:58;;;;;;;0.30;0.30;;;-1.10;99.90;;;;;;5090361;28;20651;-75
2022/03/08 05:47:24;;;;;;;0.63;0.63;;;-1.10;99.90;;;;;;5096083;28;20172;-74
2022/03/08 05:49:49;;;;;;;0.13;0.13;;;-1.00;99.90;;;;;;5093888;28;20210;-74
2022/03/08 05:52:15;;;;;;;0.33;0.33;;;-0.90;99.90;;;;;;5090644;28;20224;-75
2022/03/08 05:54:41;;;;;;;2.83;1.70;;;-0.80;99.90;;;;;;5091928;28;20827;-75
2022/03/08 05:57:06;;;;;;;0.10;0.10;;;-0.70;99.90;;;;;;5092268;28;20204;-74
2022/03/08 05:59:32;;;;;;;0.50;0.50;;;-0.70;99.90;;;;;;5092152;28;20581;-75
2022/03/08 06:01:57;;;;;;;0.37;0.37;;;-0.80;99.90;;;;;;5091774;28;20642;-74
2022/03/08 06:04:23;;;;;;;0.13;0.13;;;-0.70;99.90;;;;;;5092234;28;20176;-76
2022/03/08 06:06:50;;;;;;;0.20;0.20;;;-0.70;99.90;;;;;;5091896;28;20188;-76
2022/03/08 06:09:16;;;;;;;0.10;0.10;;;-0.60;99.90;;;;;;5091980;28;20675;-76
2022/03/08 06:11:42;;;;;;;0.20;0.20;;;-0.50;99.90;;;;;;5091662;28;20210;-76
2022/03/08 06:14:08;;;;;;;1.60;1.60;;;-0.50;99.90;;;;;;5092002;28;20258;-76
2022/03/08 06:16:34;;;;;;;0.17;0.17;;;-0.50;99.90;;;;;;5091744;28;20295;-77
2022/03/08 06:18:59;;;;;;;3.60;1.07;;;-0.50;99.90;;;;;;5073958;28;20595;-75
2022/03/08 06:21:25;;;;;;;0.10;0.10;;;-0.50;99.90;;;;;;5091467;28;20282;-76
2022/03/08 06:23:51;;;;;;;2.00;1.90;;;-0.40;99.90;;;;;;5091678;28;20179;-75
2022/03/08 06:26:17;;;;;;;3.60;1.30;;;-0.30;99.90;;;;;;5091785;28;20180;-76
2022/03/08 06:28:42;;;;;;;1.03;1.03;;;-0.20;99.90;;;;;;5091690;28;20232;-77
2022/03/08 06:31:08;;;;;;;3.10;1.47;;;-0.30;99.90;;;;;;5091524;28;20651;-77
2022/03/08 06:33:33;;;;;;;1.70;1.63;;;-0.30;99.90;;;;;;5099128;28;20255;-76
2022/03/08 06:35:59;;;;;;;4.23;2.10;;;-0.10;99.90;;;;;;5091732;28;20567;-77
2022/03/08 06:38:24;;;;;;;0.17;0.17;;;-0.10;99.90;;;;;;5072943;28;20295;-77
2022/03/08 06:40:50;;;;;;;2.60;2.37;;;0.00;99.90;;;;;;5090885;28;20718;-77
2022/03/08 06:43:16;;;;;;;1.83;1.33;;;0.10;99.90;;;;;;5091281;28;20823;-76
2022/03/08 06:45:41;;;;;;;1.07;1.07;;;0.10;99.90;;;;;;5073348;28;20253;-77
2022/03/08 06:48:07;;;;;;;0.30;0.30;;;0.20;99.90;;;;;;5091943;28;20175;-77
2022/03/08 06:50:32;;;;;;;0.73;0.73;;;0.20;99.90;;;;;;5091145;28;20176;-77
2022/03/08 06:52:58;;;;;;;1.80;1.63;;;0.30;99.90;;;;;;5094254;28;20229;-76
2022/03/08 06:55:23;;;;;;;0.17;0.17;;;0.40;99.90;;;;;;5091448;28;20666;-77
2022/03/08 06:57:49;;;;;;;0.60;0.60;;;0.40;99.90;;;;;;5091096;28;20665;-76
2022/03/08 07:00:15;;;;;;;0.83;0.83;;;0.40;99.90;;;;;;5073138;28;20171;-76
2022/03/08 07:02:41;;;;;;;0.73;0.73;;;0.50;99.90;;;;;;5072746;28;20304;-77
2022/03/08 07:05:08;;;;;;;0.83;0.83;;;0.60;99.90;;;;;;5073110;28;20678;-76
2022/03/08 07:07:34;;;;;;;1.17;1.17;;;0.70;99.90;;;;;;5090676;28;20643;-76
2022/03/08 07:09:59;;;;;;;1.60;0.93;;;0.80;99.90;;;;;;5090233;28;20179;-76
2022/03/08 07:12:25;;;;;;;0.93;0.93;;;0.80;99.90;;;;;;5090848;28;20204;-77
2022/03/08 07:14:50;;;;;;;0.10;0.10;;;1.00;99.90;;;;;;5090979;28;20653;-77
2022/03/08 07:17:16;;;;;;;3.10;1.67;;;1.10;99.90;;;;;;5091040;28;20210;-77
2022/03/08 07:19:41;;;;;;;4.70;0.87;;;1.20;99.90;;;;;;5090731;28;20176;-76
2022/03/08 07:22:07;;;;;;;0.53;0.53;;;1.30;99.90;;;;;;5072425;28;20196;-76
2022/03/08 07:24:33;;;;;;;1.53;1.43;;;1.40;99.90;;;;;;5094584;28;20167;-76
2022/03/08 07:26:58;;;;;;;0.40;0.40;;;1.60;99.90;;;;;;5072690;28;20198;-76
2022/03/08 07:29:24;;;;;;;1.77;1.67;;;1.70;99.90;;;;;;5072669;28;20176;-77
2022/03/08 07:31:50;;;;;;;2.00;1.90;;;1.80;99.90;;;;;;5075672;28;20254;-77
2022/03/08 07:34:15;;;;;;;0.30;0.30;;;2.00;99.90;;;;;;5090923;28;20191;-77
2022/03/08 07:36:41;;;;;;;0.70;0.70;;;2.10;99.90;;;;;;5090585;28;20559;-77
2022/03/08 07:39:06;;;;;;;0.53;0.53;;;2.20;99.90;;;;;;5090992;28;20635;-77
2022/03/08 07:41:32;;;;;;;3.33;1.70;;;2.30;99.90;;;;;;5090748;28;20671;-77
2022/03/08 07:43:58;;;;;;;0.37;0.37;;;2.40;99.90;;;;;;5090878;28;20180;-77
2022/03/08 07:46:24;;;;;;;1.37;0.83;;;2.50;99.90;;;;;;5072465;28;20207;-74
2022/03/08 07:48:49;;;;;;;0.40;0.40;;;2.50;99.90;;;;;;5090977;28;20192;-77
2022/03/08 07:51:15;;;;;;;2.65;2.20;;;2.70;99.90;;;;;;5089567;28;20762;-76
2022/03/08 07:53:40;;;;;;;0.47;0.47;;;2.70;99.90;;;;;;5112397;22;20249;-77
2022/03/08 07:56:06;;;;;;;3.90;2.73;;;2.80;99.90;;;;;;5071219;28;20185;-77
2022/03/08 07:58:32;;;;;;;2.70;1.27;;;2.90;99.90;;;;;;5053453;28;20181;-77
2022/03/08 08:00:57;;;;;;;0.50;0.50;;;3.00;99.90;;;;;;5071535;28;20165;-77
2022/03/08 08:03:23;;;;;;;5.83;0.80;;;3.10;99.90;;;;;;5070300;28;20201;-77
2022/03/08 08:05:48;;;;;;;0.23;0.23;;;3.20;99.90;;;;;;5052974;28;20194;-77
2022/03/08 08:08:14;;;;;;;1.40;1.30;;;3.20;99.90;;;;;;5071361;28;20187;-77
2022/03/08 08:10:39;;;;;;;0.97;0.97;;;3.30;99.90;;;;;;5056384;28;20301;-77
2022/03/08 08:13:05;;;;;;;0.40;0.40;;;3.40;99.90;;;;;;5074567;28;20206;-77
2022/03/08 08:15:31;;;;;;;3.03;1.43;;;3.40;99.90;;;;;;5056339;28;20197;-78
2022/03/08 08:17:56;;;;;;;0.50;0.50;;;3.50;99.90;;;;;;5074264;28;20183;-77
2022/03/08 08:20:22;;;;;;;0.70;0.70;;;3.60;99.90;;;;;;5073848;28;20259;-78
2022/03/08 08:22:48;;;;;;;1.47;1.37;;;3.50;99.90;;;;;;5073872;28;20198;-77
2022/03/08 08:25:14;;;;;;;1.70;1.37;;;3.60;99.90;;;;;;5056452;28;20180;-77
2022/03/08 08:27:40;;;;;;;2.00;1.10;;;3.70;99.90;;;;;;5056445;28;20187;-78
2022/03/08 08:30:07;;;;;;;1.03;1.03;;;3.80;99.90;;;;;;5074656;28;20188;-77
2022/03/08 08:32:33;;;;;;;1.67;1.60;;;3.90;99.90;;;;;;5073806;28;20201;-77
2022/03/08 08:34:58;;;;;;;2.37;0.70;;;4.00;99.90;;;;;;5073871;28;20266;-77
2022/03/08 08:37:24;;;;;;;1.47;1.40;;;4.20;99.90;;;;;;5074165;28;20686;-78
2022/03/08 08:39:49;;;;;;;0.50;0.50;;;4.20;99.90;;;;;;5073955;28;20660;-78
2022/03/08 08:42:15;;;;;;;0.70;0.70;;;4.40;99.90;;;;;;5074083;28;20640;-76
2022/03/08 08:44:40;;;;;;;0.67;0.67;;;4.50;99.90;;;;;;5073833;28;20204;-77
2022/03/08 08:47:06;;;;;;;0.60;0.60;;;4.50;99.90;;;;;;5055914;28;20187;-77
2022/03/08 08:49:31;;;;;;;1.27;1.27;;;4.50;99.90;;;;;;5073604;28;20298;-78
2022/03/08 08:51:57;;;;;;;1.03;0.80;;;4.60;99.90;;;;;;5073662;28;20265;-77
2022/03/08 08:54:23;;;;;;;0.30;0.30;;;4.60;99.90;;;;;;5074717;28;20269;-77
2022/03/08 08:56:49;;;;;;;5.27;0.97;;;4.80;99.90;;;;;;5074626;28;20200;-77
2022/03/08 08:59:15;;;;;;;0.20;0.20;;;4.80;99.90;;;;;;5073678;28;20230;-78
2022/03/08 09:01:40;;;;;;;0.50;0.50;;;5.00;99.90;;;;;;5074074;28;20187;-77
2022/03/08 09:04:06;;;;;;;0.20;0.20;;;5.10;99.90;;;;;;5056404;28;20214;-77
2022/03/08 09:06:31;;;;;;;1.13;1.00;;;5.20;99.90;;;;;;5073869;28;20180;-77
2022/03/08 09:08:57;;;;;;;2.00;1.57;;;5.30;99.90;;;;;;5055814;28;20183;-75
2022/03/08 09:11:23;;;;;;;1.43;0.70;;;5.40;99.90;;;;;;5055930;28;20532;-76
2022/03/08 09:13:49;;;;;;;1.93;1.10;;;5.50;99.90;;;;;;5073221;28;20206;-77
2022/03/08 09:16:15;;;;;;;0.50;0.50;;;5.60;99.90;;;;;;5075951;28;20208;-78
2022/03/08 09:18:44;;;;;;;0.87;0.60;;;5.50;99.90;;;;;;5086706;28;20204;-77
2022/03/08 09:21:10;;;;;;;0.97;0.93;;;5.60;99.90;;;;;;5080914;28;20188;-77
2022/03/08 09:23:37;;;;;;;0.70;0.70;;;5.80;99.90;;;;;;5077096;28;20189;-77
2022/03/08 09:26:03;;;;;;;0.70;0.70;;;5.90;99.90;;;;;;5057533;28;20515;-77
2022/03/08 09:28:28;;;;;;;0.47;0.40;;;6.00;99.90;;;;;;5076267;28;20176;-77
2022/03/08 09:30:54;;;;;;;1.93;1.83;;;6.30;99.90;;;;;;5058178;28;20237;-77
2022/03/08 09:33:20;;;;;;;63.13;3.73;;;6.30;99.90;;;;;;5076051;28;20257;-77
2022/03/08 09:35:45;;;;;;;1.47;1.37;;;6.30;99.90;;;;;;5074284;28;20279;-76
2022/03/08 09:38:12;;;;;;;2.93;1.03;;;6.40;99.90;;;;;;5056017;28;20706;-76
2022/03/08 09:40:39;;;;;;;1.13;0.93;;;6.50;99.90;;;;;;5055759;28;20640;-77
2022/03/08 09:43:04;;;;;;;1.90;1.47;;;6.50;99.90;;;;;;5054842;28;20227;-77
2022/03/08 09:45:30;;;;;;;0.20;0.20;;;6.70;99.90;;;;;;5073249;28;20653;-77
2022/03/08 09:47:55;;;;;;;1.13;1.00;;;6.80;99.90;;;;;;5072138;28;20399;-77
2022/03/08 09:50:21;;;;;;;1.40;1.13;;;6.90;99.90;;;;;;5073388;28;20176;-77
2022/03/08 09:52:47;;;;;;;0.60;0.60;;;6.90;99.90;;;;;;5073145;28;20254;-77
2022/03/08 09:55:15;;;;;;;1.10;1.10;;;7.00;99.90;;;;;;5054944;28;20196;-77
2022/03/08 09:57:41;;;;;;;0.40;0.40;;;7.10;99.90;;;;;;5055632;28;20218;-77
2022/03/08 10:00:10;;;;;;;3.50;0.83;;;7.10;99.90;;;;;;5073855;28;20177;-77
2022/03/08 10:02:53;;;;;;;0.30;0.30;;;7.00;99.90;;;;;;5073659;28;20184;-78
2022/03/08 10:05:25;;;;;;;0.10;0.10;;;7.10;99.90;;;;;;5055347;28;20257;-77
2022/03/08 10:08:10;;;;;;;1.03;0.93;;;7.40;99.90;;;;;;5073201;28;20177;-77
2022/03/08 10:10:43;;;;;;;1.60;1.50;;;7.40;99.90;;;;;;5055854;28;20176;-78
2022/03/08 10:13:11;;;;;;;0.97;0.97;;;7.40;99.90;;;;;;5073334;28;20288;-78
2022/03/08 10:15:36;;;;;;;2.37;1.43;;;7.20;99.90;;;;;;5075879;28;20202;-77
2022/03/08 10:18:02;;;;;;;1.60;1.13;;;7.30;99.90;;;;;;5055227;28;20653;-77
2022/03/08 10:20:30;;;;;;;0.60;0.60;;;7.50;99.90;;;;;;5074123;28;20175;-77
2022/03/08 10:22:57;;;;;;;1.13;1.00;;;7.60;99.90;;;;;;5067670;28;20314;-78
2022/03/08 10:25:26;;;;;;;1.50;0.63;;;7.60;99.90;;;;;;5079755;28;20173;-77
2022/03/08 10:27:54;;;;;;;5.23;2.10;;;7.80;99.90;;;;;;5056422;28;20233;-78
2022/03/08 10:30:43;;;;;;;1.03;1.03;;;7.90;99.90;;;;;;5074332;28;20179;-77
2022/03/08 10:33:09;;;;;;;1.57;1.43;;;7.90;99.90;;;;;;5072198;28;20204;-78
2022/03/08 10:35:39;;;;;;;2.57;0.50;;;7.90;99.90;;;;;;5074746;28;20187;-78
2022/03/08 10:38:08;;;;;;;1.60;1.50;;;8.00;99.90;;;;;;5074360;28;20173;-78
2022/03/08 10:40:35;;;;;;;1.67;1.37;;;8.00;99.90;;;;;;5075330;28;20241;-78
2022/03/08 10:43:22;;;;;;;1.23;1.23;;;8.00;99.90;;;;;;5077557;28;20193;-77
2022/03/08 10:45:52;;;;;;;4.57;1.63;;;7.90;99.90;;;;;;5060246;28;20568;-78
2022/03/08 10:48:18;;;;;;;0.73;0.73;;;8.20;99.90;;;;;;5060359;28;20735;-78
2022/03/08 10:50:46;;;;;;;0.50;0.50;;;8.30;99.90;;;;;;5058447;28;20180;-78
2022/03/08 10:53:12;;;;;;;0.63;0.63;;;8.50;99.90;;;;;;5078126;28;20283;-78
2022/03/08 10:55:45;;;;;;;1.03;0.73;;;8.50;99.90;;;;;;5079779;28;20665;-78
2022/03/08 10:58:12;;;;;;;1.07;1.07;;;8.80;99.90;;;;;;5066499;28;20204;-77
2022/03/08 11:00:43;;;;;;;1.13;1.13;;;8.60;99.90;;;;;;5074202;28;20635;-77
2022/03/08 11:03:12;;;;;;;4.60;1.83;;;8.60;99.90;;;;;;5077589;28;20203;-78
2022/03/08 11:05:43;;;;;;;1.10;1.10;;;9.00;99.90;;;;;;5077834;28;20188;-78
2022/03/08 11:08:09;;;;;;;0.20;0.20;;;8.80;99.90;;;;;;5076566;28;20177;-78
2022/03/08 11:10:35;;;;;;;3.40;1.63;;;8.80;99.90;;;;;;5075220;28;20180;-77
2022/03/08 11:13:02;;;;;;;2.43;1.70;;;8.90;99.90;;;;;;5075585;28;20215;-78
2022/03/08 11:15:31;;;;;;;0.70;0.70;;;8.70;99.90;;;;;;5074818;28;20177;-78
2022/03/08 11:17:57;;;;;;;0.83;0.83;;;9.20;99.90;;;;;;5056910;28;20185;-77
2022/03/08 11:20:25;;;;;;;2.67;1.03;;;9.30;99.90;;;;;;5074745;28;20215;-78
2022/03/08 11:22:53;;;;;;;0.60;0.60;;;9.10;99.90;;;;;;5056071;28;20295;-78
2022/03/08 11:25:19;;;;;;;0.93;0.63;;;9.40;99.90;;;;;;5057400;28;20757;-78
2022/03/08 11:27:47;;;;;;;0.43;0.40;;;9.40;99.90;;;;;;5074103;28;20205;-78
2022/03/08 11:30:19;;;;;;;1.90;1.70;;;9.60;99.90;;;;;;5074418;28;20183;-78
2022/03/08 11:33:04;;;;;;;1.23;1.23;;;9.60;99.90;;;;;;5074157;28;20251;-77
2022/03/08 11:35:32;;;;;;;3.97;2.07;;;10.10;99.90;;;;;;5074879;28;20176;-78
2022/03/08 11:37:58;;;;;;;1.50;0.73;;;10.20;99.90;;;;;;5074414;28;20188;-78
2022/03/08 11:40:24;;;;;;;0.73;0.73;;;10.50;99.90;;;;;;5057464;28;20180;-78
2022/03/08 11:42:59;;;;;;;0.77;0.77;;;10.50;99.90;;;;;;5075068;28;20203;-79
2022/03/08 11:45:27;;;;;;;0.40;0.40;;;10.40;99.90;;;;;;5079631;28;20172;-78
2022/03/08 11:47:58;;;;;;;1.00;1.00;;;10.70;99.90;;;;;;5086653;28;20211;-78
2022/03/08 11:50:40;;;;;;;1.73;0.80;;;10.80;99.90;;;;;;5085413;28;20227;-78
2022/03/08 11:53:16;;;;;;;1.93;0.40;;;10.80;99.90;;;;;;5084091;28;20556;-78
2022/03/08 11:55:44;;;;;;;1.73;1.33;;;11.10;99.90;;;;;;5079891;28;20531;-78
2022/03/08 11:58:20;;;;;;;1.33;0.90;;;11.10;99.90;;;;;;5058633;28;20191;-78
2022/03/08 12:00:53;;;;;;;1.13;1.07;;;11.40;99.90;;;;;;5080334;28;20263;-77
2022/03/08 12:03:24;;;;;;;0.73;0.73;;;11.60;99.90;;;;;;5079802;28;20535;-77
2022/03/08 12:06:18;;;;;;;2.13;0.83;;;11.70;99.90;;;;;;5063015;28;20580;-77
2022/03/08 12:08:45;;;;;;;0.50;0.50;;;11.80;99.90;;;;;;5077739;28;20252;-77
2022/03/08 12:11:26;;;;;;;8.47;2.07;;;12.20;99.30;;;;;;5078835;28;20181;-78
2022/03/08 12:14:20;;;;;;;5.00;1.33;;;12.80;99.90;;;;;;5079738;28;20204;-78
2022/03/08 12:16:50;;;;;;;0.73;0.53;;;12.20;99.10;;;;;;5080575;28;20200;-78
2022/03/08 12:19:29;;;;;;;24.63;2.03;;;12.40;98.70;;;;;;5080744;28;20174;-78
2022/03/08 12:21:56;;;;;;;4.13;1.70;;;12.50;97.60;;;;;;5062861;28;20181;-78
2022/03/08 12:24:22;;;;;;;3.13;0.87;;;12.20;96.60;;;;;;5081343;28;20246;-78
2022/03/08 12:26:48;;;;;;;6.50;0.67;;;11.90;95.80;;;;;;5063646;28;20184;-78
2022/03/08 12:29:21;;;;;;;1.50;1.40;;;12.30;95.80;;;;;;5063422;28;20211;-78
2022/03/08 12:31:56;;;;;;;1.70;1.27;;;12.60;94.10;;;;;;5079190;28;20255;-78
2022/03/08 12:34:35;;;;;;;2.13;1.40;;;12.90;94.90;;;;;;5079492;28;20255;-78
2022/03/08 12:37:14;;;;;;;1.37;1.33;;;13.00;94.50;;;;;;5079070;28;20202;-78
2022/03/08 12:40:15;;;;;;;2.20;1.57;;;13.00;92.30;;;;;;5079135;28;20182;-78
2022/03/08 12:43:11;;;;;;;4.37;1.03;;;13.20;93.80;;;;;;5079455;28;20211;-77
2022/03/08 12:45:39;;;;;;;1.37;1.27;;;13.60;91.40;;;;;;5081017;28;20260;-78
2022/03/08 12:48:09;;;;;;;5.20;0.90;;;13.30;89.70;;;;;;5065054;28;20218;-78
2022/03/08 12:50:39;;;;;;;1.13;1.13;;;13.60;92.40;;;;;;5062896;28;20177;-78
2022/03/08 12:53:06;;;;;;;4.70;0.90;;;13.70;90.30;;;;;;5063094;28;20223;-78